createdAt,value
2017-11-26T00:01:34.362Z,4.90
2017-11-26T00:04:01.122Z,5.23
2017-11-26T00:06:28.012Z,5.50
2017-11-26T00:08:54.790Z,5.37
2017-11-26T00:11:21.508Z,6.57
2017-11-26T00:13:48.278Z,5.60
2017-11-26T00:16:15.150Z,5.47
2017-11-26T00:18:41.917Z,6.13
2017-11-26T00:21:08.701Z,5.87
2017-11-26T00:23:35.487Z,5.60
2017-11-26T00:26:02.234Z,6.20
2017-11-26T00:28:29.118Z,6.00
2017-11-26T00:30:55.873Z,5.60
2017-11-26T00:33:22.684Z,6.33
2017-11-26T00:35:49.440Z,7.10
2017-11-26T00:38:16.224Z,7.60
2017-11-26T00:40:42.970Z,7.40
2017-11-26T00:43:10.594Z,6.90
2017-11-26T00:45:37.415Z,7.23
2017-11-26T00:48:04.178Z,8.20
2017-11-26T00:50:30.917Z,6.10
2017-11-26T00:52:57.675Z,6.67
2017-11-26T00:55:24.518Z,7.10
2017-11-26T00:57:51.339Z,7.70
2017-11-26T01:00:18.137Z,6.70
2017-11-26T01:02:44.917Z,6.93
2017-11-26T01:05:11.664Z,6.80
2017-11-26T01:07:38.494Z,7.27
2017-11-26T01:10:05.289Z,6.87
2017-11-26T01:12:32.075Z,6.00
2017-11-26T01:14:58.905Z,6.37
2017-11-26T01:17:25.669Z,6.13
2017-11-26T01:19:52.788Z,5.93
2017-11-26T01:22:25.324Z,6.80
2017-11-26T01:24:52.118Z,8.50
2017-11-26T01:27:18.896Z,6.40
2017-11-26T01:29:45.717Z,5.90
2017-11-26T01:32:12.595Z,6.40
2017-11-26T01:34:39.407Z,6.00
2017-11-26T01:37:06.149Z,5.53
2017-11-26T01:39:32.924Z,6.27
2017-11-26T01:41:59.743Z,6.07
2017-11-26T01:44:26.474Z,5.70
2017-11-26T01:46:53.210Z,4.60
2017-11-26T01:49:20.001Z,5.00
2017-11-26T01:51:46.755Z,5.40
2017-11-26T01:54:13.511Z,4.63
2017-11-26T01:56:40.285Z,6.10
2017-11-26T01:59:07.095Z,5.73
2017-11-26T02:01:33.866Z,5.10
2017-11-26T02:04:00.725Z,5.30
2017-11-26T02:06:27.469Z,5.40
2017-11-26T02:08:54.218Z,4.97
2017-11-26T02:11:21.017Z,5.60
2017-11-26T02:13:47.805Z,5.20
2017-11-26T02:16:14.594Z,5.63
2017-11-26T02:18:41.334Z,6.17
2017-11-26T02:21:08.134Z,5.90
2017-11-26T02:23:34.908Z,5.80
2017-11-26T02:26:01.628Z,5.33
2017-11-26T02:28:28.371Z,6.40
2017-11-26T02:30:55.134Z,6.40
2017-11-26T02:33:27.722Z,6.13
2017-11-26T02:35:56.370Z,6.20
2017-11-26T02:38:23.190Z,6.30
2017-11-26T02:40:49.920Z,6.40
2017-11-26T02:43:16.716Z,6.53
2017-11-26T02:45:43.482Z,6.00
2017-11-26T02:48:10.279Z,6.87
2017-11-26T02:50:37.072Z,6.73
2017-11-26T02:53:03.823Z,6.73
2017-11-26T02:55:30.624Z,6.00
2017-11-26T02:57:57.352Z,6.03
2017-11-26T03:00:24.123Z,6.40
2017-11-26T03:02:50.870Z,5.63
2017-11-26T03:05:17.691Z,6.13
2017-11-26T03:07:44.473Z,6.57
2017-11-26T03:10:11.250Z,6.07
2017-11-26T03:12:38.029Z,5.97
2017-11-26T03:15:04.772Z,5.00
2017-11-26T03:17:31.575Z,4.87
2017-11-26T03:19:58.313Z,5.10
2017-11-26T03:22:25.069Z,4.73
2017-11-26T03:24:51.886Z,4.47
2017-11-26T03:27:18.608Z,5.10
2017-11-26T03:29:45.343Z,4.10
2017-11-26T03:32:12.101Z,4.53
2017-11-26T03:34:39.000Z,4.93
2017-11-26T03:37:05.769Z,4.20
2017-11-26T03:39:32.528Z,5.30
2017-11-26T03:41:59.266Z,4.67
2017-11-26T03:44:26.033Z,5.00
2017-11-26T03:46:52.767Z,5.67
2017-11-26T03:49:19.527Z,5.20
2017-11-26T03:51:46.268Z,5.00
2017-11-26T03:54:12.995Z,4.93
2017-11-26T03:56:39.784Z,4.70
2017-11-26T03:59:06.577Z,4.47
2017-11-26T04:01:33.311Z,3.93
2017-11-26T04:04:00.059Z,4.57
2017-11-26T04:06:26.820Z,4.40
2017-11-26T04:08:53.548Z,5.07
2017-11-26T04:11:20.323Z,4.57
2017-11-26T04:13:47.121Z,5.30
2017-11-26T04:16:14.695Z,4.50
2017-11-26T04:18:41.467Z,4.70
2017-11-26T04:21:08.277Z,4.47
2017-11-26T04:23:35.041Z,4.40
2017-11-26T04:26:01.800Z,4.70
2017-11-26T04:28:28.603Z,4.83
2017-11-26T04:30:55.358Z,4.03
2017-11-26T04:33:22.086Z,3.83
2017-11-26T04:35:48.873Z,3.53
2017-11-26T04:38:15.658Z,4.07
2017-11-26T04:40:42.479Z,4.20
2017-11-26T04:43:09.223Z,3.63
2017-11-26T04:45:35.992Z,3.37
2017-11-26T04:48:02.734Z,3.27
2017-11-26T04:50:29.906Z,3.20
2017-11-26T04:52:56.778Z,3.30
2017-11-26T04:55:23.540Z,3.27
2017-11-26T04:57:51.189Z,3.00
2017-11-26T05:00:17.935Z,2.90
2017-11-26T05:02:44.737Z,3.10
2017-11-26T05:05:11.501Z,3.23
2017-11-26T05:07:38.433Z,3.10
2017-11-26T05:10:05.182Z,2.87
2017-11-26T05:12:32.010Z,3.20
2017-11-26T05:14:58.771Z,2.90
2017-11-26T05:17:26.054Z,4.10
2017-11-26T05:19:52.827Z,3.40
2017-11-26T05:22:19.610Z,3.37
2017-11-26T05:24:46.351Z,3.27
2017-11-26T05:27:13.126Z,3.60
2017-11-26T05:29:39.906Z,3.20
2017-11-26T05:32:06.638Z,2.93
2017-11-26T05:34:33.365Z,2.90
2017-11-26T05:37:00.130Z,2.73
2017-11-26T05:39:27.051Z,3.30
2017-11-26T05:41:53.828Z,3.00
2017-11-26T05:44:20.662Z,3.00
2017-11-26T05:46:47.441Z,2.90
2017-11-26T05:49:14.203Z,3.30
2017-11-26T05:51:40.929Z,2.97
2017-11-26T05:54:07.792Z,3.37
2017-11-26T05:56:34.557Z,3.20
2017-11-26T05:59:01.328Z,3.40
2017-11-26T06:01:28.111Z,3.20
2017-11-26T06:03:54.909Z,3.60
2017-11-26T06:06:21.672Z,3.23
2017-11-26T06:08:48.462Z,4.40
2017-11-26T06:11:15.244Z,3.70
2017-11-26T06:13:41.987Z,3.47
2017-11-26T06:16:08.789Z,3.47
2017-11-26T06:18:35.536Z,3.57
2017-11-26T06:21:02.294Z,4.30
2017-11-26T06:23:29.111Z,3.93
2017-11-26T06:25:55.902Z,4.37
2017-11-26T06:28:22.706Z,4.10
2017-11-26T06:30:49.489Z,3.87
2017-11-26T06:33:16.213Z,3.57
2017-11-26T06:35:43.006Z,3.50
2017-11-26T06:38:10.016Z,3.43
2017-11-26T06:40:36.754Z,4.00
2017-11-26T06:43:03.500Z,3.80
2017-11-26T06:45:30.311Z,3.93
2017-11-26T06:47:57.063Z,3.83
2017-11-26T06:50:23.877Z,3.83
2017-11-26T06:52:50.619Z,3.33
2017-11-26T06:55:17.433Z,4.30
2017-11-26T06:57:44.182Z,4.13
2017-11-26T07:00:10.955Z,4.00
2017-11-26T07:02:37.701Z,3.63
2017-11-26T07:05:04.553Z,4.00
2017-11-26T07:07:31.351Z,4.10
2017-11-26T07:09:58.119Z,4.17
2017-11-26T07:12:24.892Z,3.97
2017-11-26T07:14:51.632Z,4.10
2017-11-26T07:17:18.413Z,3.77
2017-11-26T07:19:45.159Z,4.07
2017-11-26T07:22:11.945Z,3.80
2017-11-26T07:24:38.734Z,3.77
2017-11-26T07:27:05.471Z,4.40
2017-11-26T07:29:32.255Z,3.67
2017-11-26T07:31:59.037Z,3.93
2017-11-26T07:34:25.806Z,4.17
2017-11-26T07:36:52.566Z,3.87
2017-11-26T07:39:19.308Z,4.20
2017-11-26T07:41:46.046Z,4.83
2017-11-26T07:44:12.833Z,5.00
2017-11-26T07:46:39.614Z,4.00
2017-11-26T07:49:06.365Z,4.83
2017-11-26T07:51:33.099Z,4.97
2017-11-26T07:53:59.853Z,4.83
2017-11-26T07:56:26.589Z,5.70
2017-11-26T07:58:53.322Z,5.73
2017-11-26T08:01:20.121Z,5.00
2017-11-26T08:03:46.935Z,5.77
2017-11-26T08:06:13.722Z,5.40
2017-11-26T08:08:40.490Z,4.90
2017-11-26T08:11:07.228Z,5.47
2017-11-26T08:13:34.014Z,4.20
2017-11-26T08:16:00.771Z,5.20
2017-11-26T08:18:27.536Z,5.00
2017-11-26T08:20:54.340Z,5.17
2017-11-26T08:23:21.129Z,4.50
2017-11-26T08:25:47.926Z,5.13
2017-11-26T08:28:14.699Z,5.13
2017-11-26T08:30:41.482Z,5.30
2017-11-26T08:33:08.231Z,5.27
2017-11-26T08:35:35.009Z,6.07
2017-11-26T08:38:01.788Z,5.40
2017-11-26T08:40:28.584Z,5.80
2017-11-26T08:42:55.364Z,5.20
2017-11-26T08:45:22.485Z,5.70
2017-11-26T08:47:49.246Z,5.83
2017-11-26T08:50:16.398Z,5.43
2017-11-26T08:52:43.839Z,5.37
2017-11-26T08:55:10.887Z,6.00
2017-11-26T08:57:43.011Z,6.73
2017-11-26T09:00:09.755Z,5.70
2017-11-26T09:02:36.707Z,6.17
2017-11-26T09:05:03.566Z,6.20
2017-11-26T09:07:34.742Z,6.80
2017-11-26T09:10:01.652Z,6.27
2017-11-26T09:12:28.549Z,5.57
2017-11-26T09:14:55.372Z,6.17
2017-11-26T09:17:22.126Z,6.10
2017-11-26T09:19:48.938Z,5.60
2017-11-26T09:22:16.016Z,5.90
2017-11-26T09:24:42.832Z,5.80
2017-11-26T09:27:09.682Z,6.00
2017-11-26T09:29:36.491Z,5.10
2017-11-26T09:32:03.221Z,5.30
2017-11-26T09:34:30.005Z,5.90
2017-11-26T09:36:56.794Z,6.67
2017-11-26T09:39:23.562Z,5.47
2017-11-26T09:41:50.325Z,5.77
2017-11-26T09:44:17.099Z,5.90
2017-11-26T09:46:43.900Z,6.13
2017-11-26T09:49:10.707Z,6.10
2017-11-26T09:51:37.455Z,5.50
2017-11-26T09:54:04.237Z,5.60
2017-11-26T09:56:30.991Z,6.37
2017-11-26T09:58:57.741Z,5.93
2017-11-26T10:01:24.507Z,5.93
2017-11-26T10:03:51.241Z,5.53
2017-11-26T10:06:18.002Z,5.80
2017-11-26T10:08:44.800Z,5.33
2017-11-26T10:11:11.582Z,6.03
2017-11-26T10:13:38.317Z,5.47
2017-11-26T10:16:05.103Z,4.80
2017-11-26T10:18:31.866Z,5.60
2017-11-26T10:20:58.628Z,6.00
2017-11-26T10:23:25.387Z,5.63
2017-11-26T10:25:52.148Z,6.43
2017-11-26T10:28:18.998Z,6.37
2017-11-26T10:30:45.741Z,5.43
2017-11-26T10:33:12.513Z,6.27
2017-11-26T10:35:39.284Z,6.50
2017-11-26T10:38:06.068Z,6.40
2017-11-26T10:40:32.899Z,6.50
2017-11-26T10:42:59.636Z,6.90
2017-11-26T10:45:26.402Z,6.60
2017-11-26T10:47:53.263Z,6.13
2017-11-26T10:50:20.013Z,5.60
2017-11-26T10:52:46.834Z,5.97
2017-11-26T10:55:13.538Z,6.00
2017-11-26T10:57:40.302Z,5.80
2017-11-26T11:00:07.095Z,5.20
2017-11-26T11:02:33.948Z,5.87
2017-11-26T11:05:00.682Z,5.13
2017-11-26T11:07:27.612Z,5.10
2017-11-26T11:09:54.398Z,5.60
2017-11-26T11:12:21.153Z,5.13
2017-11-26T11:14:47.875Z,4.80
2017-11-26T11:17:14.656Z,5.27
2017-11-26T11:19:41.481Z,5.47
2017-11-26T11:22:08.294Z,5.37
2017-11-26T11:24:35.116Z,4.87
2017-11-26T11:27:01.948Z,4.40
2017-11-26T11:29:28.710Z,4.60
2017-11-26T11:31:55.481Z,5.07
2017-11-26T11:34:22.259Z,4.87
2017-11-26T11:36:49.022Z,4.90
2017-11-26T11:39:15.810Z,5.80
2017-11-26T11:41:43.540Z,4.13
2017-11-26T11:44:10.301Z,4.67
2017-11-26T11:46:37.080Z,5.10
2017-11-26T11:49:03.865Z,4.80
2017-11-26T11:51:30.668Z,5.50
2017-11-26T11:53:57.430Z,4.97
2017-11-26T11:56:24.275Z,5.40
2017-11-26T11:58:51.040Z,5.10
2017-11-26T12:01:17.853Z,5.47
2017-11-26T12:03:44.588Z,5.23
2017-11-26T12:06:11.369Z,4.10
2017-11-26T12:08:38.104Z,4.30
2017-11-26T12:11:04.883Z,4.53
2017-11-26T12:13:31.642Z,4.77
2017-11-26T12:15:58.431Z,4.80
2017-11-26T12:18:25.223Z,4.30
2017-11-26T12:20:52.004Z,5.03
2017-11-26T12:23:18.861Z,3.80
2017-11-26T12:25:45.629Z,3.73
2017-11-26T12:28:12.453Z,3.83
2017-11-26T12:30:39.211Z,4.43
2017-11-26T12:33:05.998Z,4.83
2017-11-26T12:35:33.103Z,4.20
2017-11-26T12:37:59.925Z,4.30
2017-11-26T12:40:26.710Z,3.80
2017-11-26T12:42:53.476Z,4.40
2017-11-26T12:45:20.214Z,4.37
2017-11-26T12:47:47.036Z,3.20
2017-11-26T12:50:14.288Z,3.47
2017-11-26T12:52:41.046Z,3.77
2017-11-26T12:55:07.816Z,3.40
2017-11-26T12:57:34.624Z,3.67
2017-11-26T13:00:01.369Z,3.80
2017-11-26T13:02:29.434Z,3.10
2017-11-26T13:04:56.186Z,4.23
2017-11-26T13:07:22.940Z,4.50
2017-11-26T13:09:49.726Z,4.10
2017-11-26T13:12:16.495Z,3.73
2017-11-26T13:14:43.266Z,3.70
2017-11-26T13:17:10.086Z,3.60
2017-11-26T13:19:36.829Z,4.27
2017-11-26T13:22:03.606Z,3.87
2017-11-26T13:24:30.402Z,3.70
2017-11-26T13:26:57.169Z,3.73
2017-11-26T13:29:23.908Z,3.90
2017-11-26T13:31:50.710Z,3.40
2017-11-26T13:34:17.450Z,4.00
2017-11-26T13:36:44.231Z,4.03
2017-11-26T13:39:10.982Z,3.90
2017-11-26T13:41:37.808Z,3.37
2017-11-26T13:44:04.586Z,3.60
2017-11-26T13:46:31.323Z,3.30
2017-11-26T13:48:58.118Z,3.23
2017-11-26T13:51:24.965Z,3.70
2017-11-26T13:53:51.752Z,3.60
2017-11-26T13:56:18.492Z,3.50
2017-11-26T13:58:45.257Z,3.30
2017-11-26T14:01:12.016Z,3.70
2017-11-26T14:03:38.795Z,4.47
2017-11-26T14:06:05.563Z,4.43
2017-11-26T14:08:32.338Z,4.40
2017-11-26T14:10:59.132Z,5.07
2017-11-26T14:13:25.999Z,5.43
2017-11-26T14:15:52.800Z,4.60
2017-11-26T14:18:19.581Z,4.33
2017-11-26T14:20:46.343Z,4.07
2017-11-26T14:23:13.071Z,4.17
2017-11-26T14:25:39.891Z,5.10
2017-11-26T14:28:06.620Z,5.37
2017-11-26T14:30:33.450Z,5.53
2017-11-26T14:33:00.282Z,5.13
2017-11-26T14:35:27.022Z,5.53
2017-11-26T14:37:53.852Z,5.33
2017-11-26T14:40:20.585Z,4.97
2017-11-26T14:42:47.333Z,5.63
2017-11-26T14:45:14.098Z,5.60
2017-11-26T14:47:40.874Z,5.00
2017-11-26T14:50:07.676Z,4.90
2017-11-26T14:52:34.482Z,6.80
2017-11-26T14:55:01.286Z,5.33
2017-11-26T14:57:28.107Z,5.50
2017-11-26T14:59:54.860Z,5.53
2017-11-26T15:02:21.597Z,5.30
2017-11-26T15:04:48.355Z,5.90
2017-11-26T15:07:15.096Z,5.40
2017-11-26T15:09:41.836Z,5.50
2017-11-26T15:12:08.621Z,6.00
2017-11-26T15:14:35.363Z,6.10
2017-11-26T15:17:02.211Z,6.30
2017-11-26T15:19:29.502Z,6.30
2017-11-26T15:21:56.290Z,4.90
2017-11-26T15:24:23.070Z,5.40
2017-11-26T15:26:49.885Z,6.00
2017-11-26T15:29:16.618Z,6.00
2017-11-26T15:31:43.373Z,6.20
2017-11-26T15:34:10.183Z,6.67
2017-11-26T15:36:36.985Z,6.20
2017-11-26T15:39:03.869Z,6.20
2017-11-26T15:41:30.676Z,6.60
2017-11-26T15:43:57.418Z,6.63
2017-11-26T15:46:24.199Z,5.87
2017-11-26T15:48:50.965Z,6.40
2017-11-26T15:51:17.788Z,6.20
2017-11-26T15:53:44.593Z,5.60
2017-11-26T15:56:11.366Z,5.90
2017-11-26T15:58:38.177Z,6.87
2017-11-26T16:01:04.935Z,6.77
2017-11-26T16:03:31.686Z,6.07
2017-11-26T16:05:58.456Z,7.23
2017-11-26T16:08:25.212Z,7.17
2017-11-26T16:10:51.989Z,7.57
2017-11-26T16:13:18.742Z,7.50
2017-11-26T16:15:45.579Z,7.93
2017-11-26T16:18:12.387Z,6.77
2017-11-26T16:20:39.137Z,6.33
2017-11-26T16:23:05.916Z,6.13
2017-11-26T16:25:32.650Z,6.40
2017-11-26T16:27:59.421Z,6.83
2017-11-26T16:30:26.190Z,7.20
2017-11-26T16:32:52.968Z,6.63
2017-11-26T16:35:19.699Z,6.97
2017-11-26T16:37:46.501Z,6.50
2017-11-26T16:40:13.280Z,5.93
2017-11-26T16:42:40.051Z,6.70
2017-11-26T16:45:06.847Z,5.83
2017-11-26T16:47:33.610Z,5.43
2017-11-26T16:50:00.340Z,5.70
2017-11-26T16:52:27.368Z,5.03
2017-11-26T16:54:54.167Z,4.50
2017-11-26T16:57:20.927Z,4.10
2017-11-26T16:59:47.699Z,4.10
2017-11-26T17:02:14.452Z,4.07
2017-11-26T17:04:41.235Z,4.27
2017-11-26T17:07:08.002Z,4.67
2017-11-26T17:09:34.760Z,3.83
2017-11-26T17:12:01.543Z,4.40
2017-11-26T17:14:28.325Z,4.20
2017-11-26T17:16:55.064Z,3.73
2017-11-26T17:19:21.888Z,3.97
2017-11-26T17:21:48.651Z,5.10
2017-11-26T17:24:15.398Z,5.13
2017-11-26T17:26:42.199Z,4.30
2017-11-26T17:29:08.924Z,5.10
2017-11-26T17:31:35.715Z,4.93
2017-11-26T17:34:02.494Z,4.50
2017-11-26T17:36:29.552Z,4.70
2017-11-26T17:38:56.364Z,5.40
2017-11-26T17:41:23.156Z,4.57
2017-11-26T17:43:49.921Z,4.83
2017-11-26T17:46:16.763Z,5.37
2017-11-26T17:48:43.550Z,4.70
2017-11-26T17:51:10.306Z,4.93
2017-11-26T17:53:37.093Z,4.63
2017-11-26T17:56:03.844Z,5.83
2017-11-26T17:58:30.598Z,5.47
2017-11-26T18:00:57.409Z,5.50
2017-11-26T18:03:24.229Z,5.03
2017-11-26T18:05:51.023Z,5.80
2017-11-26T18:08:17.853Z,5.33
2017-11-26T18:10:44.605Z,6.20
2017-11-26T18:13:11.412Z,4.70
2017-11-26T18:15:38.184Z,5.00
2017-11-26T18:18:04.906Z,4.70
2017-11-26T18:20:31.696Z,5.00
2017-11-26T18:22:58.517Z,5.30
2017-11-26T18:25:25.328Z,5.00
2017-11-26T18:27:52.112Z,4.40
2017-11-26T18:30:18.886Z,5.80
2017-11-26T18:32:45.653Z,5.40
2017-11-26T18:35:12.455Z,5.70
2017-11-26T18:37:39.266Z,4.80
2017-11-26T18:40:06.058Z,5.30
2017-11-26T18:42:32.828Z,6.00
2017-11-26T18:44:59.602Z,6.13
2017-11-26T18:47:26.372Z,6.63
2017-11-26T18:49:53.749Z,5.60
2017-11-26T18:52:20.574Z,5.70
2017-11-26T18:54:47.422Z,5.70
2017-11-26T18:57:14.177Z,5.57
2017-11-26T18:59:41.002Z,5.90
2017-11-26T19:02:07.949Z,6.23
2017-11-26T19:04:34.722Z,5.50
2017-11-26T19:07:01.547Z,5.37
2017-11-26T19:09:28.343Z,6.33
2017-11-26T19:11:55.092Z,5.20
2017-11-26T19:14:21.873Z,5.57
2017-11-26T19:16:48.680Z,6.43
2017-11-26T19:19:15.483Z,6.03
2017-11-26T19:21:42.333Z,6.07
2017-11-26T19:24:12.335Z,5.83
2017-11-26T19:26:39.133Z,6.27
2017-11-26T19:29:05.884Z,6.03
2017-11-26T19:31:32.679Z,6.20
2017-11-26T19:33:59.566Z,5.10
2017-11-26T19:36:26.412Z,5.60
2017-11-26T19:38:53.265Z,5.93
2017-11-26T19:41:20.728Z,5.40
2017-11-26T19:43:47.466Z,6.10
2017-11-26T19:46:16.112Z,5.90
2017-11-26T19:48:42.854Z,5.77
2017-11-26T19:51:09.755Z,6.10
2017-11-26T19:53:36.572Z,6.43
2017-11-26T19:56:03.352Z,6.00
2017-11-26T19:58:30.197Z,5.90
2017-11-26T20:00:56.984Z,6.37
2017-11-26T20:03:23.735Z,5.80
2017-11-26T20:05:50.626Z,5.87
2017-11-26T20:08:17.368Z,5.77
2017-11-26T20:10:44.163Z,6.30
2017-11-26T20:13:10.980Z,6.20
2017-11-26T20:15:37.748Z,5.77
2017-11-26T20:18:04.604Z,5.63
2017-11-26T20:20:31.349Z,6.60
2017-11-26T20:22:59.138Z,5.40
2017-11-26T20:25:25.927Z,5.93
2017-11-26T20:27:52.830Z,5.57
2017-11-26T20:30:19.639Z,5.30
2017-11-26T20:32:46.470Z,4.83
2017-11-26T20:35:13.284Z,5.50
2017-11-26T20:37:40.022Z,5.23
2017-11-26T20:40:06.807Z,4.87
2017-11-26T20:42:33.548Z,5.13
2017-11-26T20:45:00.331Z,4.93
2017-11-26T20:47:27.116Z,5.30
2017-11-26T20:49:53.863Z,4.90
2017-11-26T20:52:20.612Z,4.80
2017-11-26T20:54:47.422Z,6.17
2017-11-26T20:57:14.266Z,5.33
2017-11-26T20:59:41.176Z,5.07
2017-11-26T21:02:07.932Z,5.70
2017-11-26T21:04:35.118Z,5.40
2017-11-26T21:07:02.207Z,5.53
2017-11-26T21:09:29.392Z,5.30
2017-11-26T21:11:56.422Z,5.40
2017-11-26T21:14:23.448Z,5.93
2017-11-26T21:16:50.570Z,5.40
2017-11-26T21:19:17.615Z,5.03
2017-11-26T21:21:44.656Z,5.17
2017-11-26T21:24:11.738Z,5.37
2017-11-26T21:26:38.907Z,4.90
2017-11-26T21:29:06.022Z,5.50
2017-11-26T21:31:33.124Z,5.20
2017-11-26T21:34:00.177Z,5.17
2017-11-26T21:36:27.291Z,4.93
2017-11-26T21:38:54.390Z,5.00
2017-11-26T21:41:21.534Z,5.73
2017-11-26T21:43:48.637Z,5.10
2017-11-26T21:46:15.710Z,5.10
2017-11-26T21:48:42.775Z,5.40
2017-11-26T21:51:09.861Z,4.97
2017-11-26T21:53:36.921Z,5.63
2017-11-26T21:56:03.962Z,5.30
2017-11-26T21:58:31.046Z,5.10
2017-11-26T22:00:58.138Z,5.33
2017-11-26T22:03:25.848Z,4.77
2017-11-26T22:05:52.891Z,5.20
2017-11-26T22:08:20.034Z,4.73
2017-11-26T22:10:47.016Z,4.20
2017-11-26T22:13:13.784Z,4.87
2017-11-26T22:15:40.522Z,5.00
2017-11-26T22:18:07.359Z,4.30
2017-11-26T22:20:34.110Z,4.33
2017-11-26T22:23:00.903Z,4.57
2017-11-26T22:25:27.738Z,5.00
2017-11-26T22:27:54.470Z,4.87
2017-11-26T22:30:21.274Z,4.53
2017-11-26T22:32:48.028Z,4.73
2017-11-26T22:35:14.842Z,5.00
2017-11-26T22:37:41.615Z,5.87
2017-11-26T22:40:08.388Z,4.97
2017-11-26T22:42:35.156Z,5.00
2017-11-26T22:45:01.959Z,4.70
2017-11-26T22:47:28.712Z,5.67
2017-11-26T22:49:55.601Z,5.13
2017-11-26T22:52:22.335Z,5.17
2017-11-26T22:54:49.095Z,5.03
2017-11-26T22:57:15.873Z,5.17
2017-11-26T22:59:42.664Z,5.47
2017-11-26T23:02:09.462Z,5.30
2017-11-26T23:04:38.894Z,5.90
2017-11-26T23:07:05.664Z,5.70
2017-11-26T23:09:32.394Z,5.30
2017-11-26T23:11:59.213Z,5.70
2017-11-26T23:14:25.991Z,5.97
2017-11-26T23:16:52.834Z,5.20
2017-11-26T23:19:19.598Z,5.87
2017-11-26T23:21:46.370Z,5.83
2017-11-26T23:24:13.139Z,6.20
2017-11-26T23:26:39.927Z,5.67
2017-11-26T23:29:06.661Z,5.80
2017-11-26T23:31:33.463Z,5.50
2017-11-26T23:34:00.220Z,5.17
2017-11-26T23:36:27.003Z,6.20
2017-11-26T23:38:53.774Z,6.20
2017-11-26T23:41:20.577Z,6.33
2017-11-26T23:43:47.335Z,5.90
2017-11-26T23:46:14.137Z,6.47
2017-11-26T23:48:40.892Z,5.73
2017-11-26T23:51:07.669Z,6.07
2017-11-26T23:53:34.407Z,5.73
2017-11-26T23:56:01.158Z,5.90
2017-11-26T23:58:28.021Z,5.37
